createdAt,value
2023-05-07T00:04:40.698Z,34.60
2023-05-07T00:09:43.929Z,34.90
2023-05-07T00:14:47.055Z,34.50
2023-05-07T00:19:51.593Z,34.50
2023-05-07T00:24:54.905Z,34.40
2023-05-07T00:29:58.042Z,34.40
2023-05-07T00:35:02.489Z,34.30
2023-05-07T00:40:08.380Z,34.30
2023-05-07T00:45:12.084Z,34.20
2023-05-07T00:50:16.630Z,34.20
2023-05-07T00:55:20.335Z,34.50
2023-05-07T01:00:23.507Z,34.10
2023-05-07T01:05:29.302Z,34.00
2023-05-07T01:10:32.954Z,34.90
2023-05-07T01:15:36.110Z,34.10
2023-05-07T01:20:40.741Z,34.30
2023-05-07T01:25:45.241Z,35.10
2023-05-07T01:30:51.753Z,35.30
2023-05-07T01:35:56.029Z,35.40
2023-05-07T01:41:01.181Z,35.40
2023-05-07T01:46:06.782Z,35.60
2023-05-07T01:51:10.991Z,35.50
2023-05-07T01:56:15.479Z,35.50
2023-05-07T02:01:18.629Z,35.60
2023-05-07T02:06:22.093Z,35.40
2023-05-07T02:11:26.807Z,35.40
2023-05-07T02:16:29.994Z,35.50
2023-05-07T02:21:33.141Z,35.40
2023-05-07T02:26:37.680Z,35.60
2023-05-07T02:31:40.843Z,35.90
2023-05-07T02:36:44.028Z,35.50
2023-05-07T02:41:48.540Z,35.50
2023-05-07T02:46:51.626Z,36.50
2023-05-07T02:51:54.785Z,35.60
2023-05-07T02:56:59.341Z,35.60
2023-05-07T03:02:02.578Z,35.90
2023-05-07T03:07:05.722Z,35.60
2023-05-07T03:12:10.318Z,35.60
2023-05-07T03:17:13.513Z,36.00
2023-05-07T03:22:17.003Z,35.80
2023-05-07T03:27:21.476Z,35.90
2023-05-07T03:32:24.922Z,36.00
2023-05-07T03:37:28.328Z,36.00
2023-05-07T03:42:32.846Z,35.90
2023-05-07T03:47:35.966Z,36.00
2023-05-07T03:52:39.129Z,35.80
2023-05-07T03:57:43.625Z,35.70
2023-05-07T04:02:46.939Z,36.10
2023-05-07T04:07:50.326Z,35.80
2023-05-07T04:12:54.874Z,35.90
2023-05-07T04:17:58.454Z,36.20
2023-05-07T04:23:02.166Z,35.80
2023-05-07T04:28:07.067Z,35.60
2023-05-07T04:33:10.345Z,36.40
2023-05-07T04:38:13.556Z,36.30
2023-05-07T04:43:18.165Z,36.50
2023-05-07T04:48:21.694Z,36.80
2023-05-07T04:53:24.872Z,36.60
2023-05-07T04:58:32.778Z,36.70
2023-05-07T05:03:36.374Z,37.40
2023-05-07T05:08:39.598Z,37.10
2023-05-07T05:13:44.117Z,37.40
2023-05-07T05:18:47.465Z,37.90
2023-05-07T05:23:50.646Z,37.60
2023-05-07T05:28:55.157Z,37.80
2023-05-07T05:33:58.262Z,38.40
2023-05-07T05:39:01.409Z,38.00
2023-05-07T05:44:06.055Z,38.30
2023-05-07T05:49:09.648Z,38.80
2023-05-07T05:54:12.870Z,38.50
2023-05-07T05:59:17.511Z,38.70
2023-05-07T06:04:21.000Z,39.20
2023-05-07T06:09:24.195Z,38.90
2023-05-07T06:14:28.736Z,39.30
2023-05-07T06:19:32.048Z,40.20
2023-05-07T06:24:35.115Z,39.70
2023-05-07T06:29:39.643Z,40.00
2023-05-07T06:34:43.068Z,40.70
2023-05-07T06:39:46.171Z,40.30
2023-05-07T06:44:50.650Z,40.40
2023-05-07T06:49:53.810Z,41.10
2023-05-07T06:54:56.995Z,40.30
2023-05-07T07:00:01.471Z,40.40
2023-05-07T07:05:04.991Z,40.60
2023-05-07T07:10:09.473Z,40.70
2023-05-07T07:15:15.155Z,40.80
2023-05-07T07:20:18.374Z,41.30
2023-05-07T07:25:21.657Z,40.80
2023-05-07T07:30:27.131Z,41.20
2023-05-07T07:35:30.462Z,41.50
2023-05-07T07:40:34.135Z,41.20
2023-05-07T07:45:41.023Z,41.40
2023-05-07T07:50:46.145Z,41.60
2023-05-07T07:55:49.551Z,41.00
2023-05-07T08:00:55.599Z,41.20
2023-05-07T08:05:58.719Z,41.50
2023-05-07T08:11:02.887Z,41.40
2023-05-07T08:16:07.920Z,41.30
2023-05-07T08:21:11.058Z,41.20
2023-05-07T08:26:14.259Z,40.90
2023-05-07T08:31:19.272Z,40.60
2023-05-07T08:36:22.611Z,40.60
2023-05-07T08:41:25.998Z,40.70
2023-05-07T08:46:34.413Z,40.30
2023-05-07T08:51:38.559Z,40.00
2023-05-07T08:56:42.136Z,39.80
2023-05-07T09:01:46.799Z,39.70
2023-05-07T09:06:52.186Z,39.90
2023-05-07T09:12:00.843Z,39.30
2023-05-07T09:17:05.348Z,38.80
2023-05-07T09:22:09.128Z,38.20
2023-05-07T09:27:14.440Z,38.50
2023-05-07T09:32:18.972Z,38.00
2023-05-07T09:37:22.178Z,38.00
2023-05-07T09:42:26.578Z,37.70
2023-05-07T09:47:34.758Z,37.10
2023-05-07T09:52:38.991Z,36.00
2023-05-07T09:57:44.116Z,36.40
2023-05-07T10:02:50.331Z,36.00
2023-05-07T10:07:54.896Z,34.90
2023-05-07T10:12:58.336Z,35.70
2023-05-07T10:18:03.225Z,35.40
2023-05-07T10:23:07.491Z,34.30
2023-05-07T10:28:13.927Z,34.40
2023-05-07T10:33:22.560Z,33.60
2023-05-07T10:38:26.489Z,33.20
2023-05-07T10:43:42.040Z,33.80
2023-05-07T10:49:12.274Z,32.20
2023-05-07T10:54:28.270Z,32.20
2023-05-07T10:59:41.820Z,31.10
2023-05-07T11:04:46.616Z,31.50
2023-05-07T11:10:02.294Z,31.80
2023-05-07T11:15:06.236Z,31.30
2023-05-07T11:20:12.570Z,31.90
2023-05-07T11:25:20.519Z,31.00
2023-05-07T11:30:24.419Z,30.10
2023-05-07T11:35:29.559Z,30.70
2023-05-07T11:40:32.747Z,30.00
2023-05-07T11:45:38.029Z,30.40
2023-05-07T11:50:53.044Z,30.40
2023-05-07T11:55:57.234Z,29.40
2023-05-07T12:01:00.636Z,29.50
2023-05-07T12:06:07.563Z,29.40
2023-05-07T12:11:12.514Z,29.40
2023-05-07T12:16:16.390Z,29.40
2023-05-07T12:21:21.030Z,29.50
2023-05-07T12:26:25.098Z,28.90
2023-05-07T12:31:28.357Z,29.50
2023-05-07T12:36:40.518Z,28.90
2023-05-07T12:41:56.455Z,27.90
2023-05-07T12:46:59.781Z,28.30
2023-05-07T12:52:04.398Z,28.60
2023-05-07T12:57:09.977Z,28.20
2023-05-07T13:02:13.288Z,28.70
2023-05-07T13:07:17.766Z,28.40
2023-05-07T13:12:20.933Z,28.30
2023-05-07T13:17:24.117Z,28.60
2023-05-07T13:22:28.660Z,28.00
2023-05-07T13:27:32.188Z,27.60
2023-05-07T13:32:35.318Z,28.00
2023-05-07T13:37:39.781Z,27.80
2023-05-07T13:42:42.936Z,27.10
2023-05-07T13:47:46.838Z,27.30
2023-05-07T13:52:52.449Z,27.00
2023-05-07T13:57:58.938Z,27.20
2023-05-07T14:03:02.102Z,27.20
2023-05-07T14:08:06.702Z,27.60
2023-05-07T14:13:09.874Z,27.30
2023-05-07T14:18:13.017Z,27.60
2023-05-07T14:23:18.745Z,27.80
2023-05-07T14:28:21.803Z,27.30
2023-05-07T14:33:24.887Z,27.70
2023-05-07T14:38:29.391Z,27.50
2023-05-07T14:43:32.539Z,27.60
2023-05-07T14:48:35.745Z,27.60
2023-05-07T14:53:40.667Z,27.70
2023-05-07T14:58:43.897Z,27.50
2023-05-07T15:03:47.192Z,27.30
2023-05-07T15:08:51.865Z,27.30
2023-05-07T15:13:55.011Z,26.90
2023-05-07T15:18:58.145Z,27.20
2023-05-07T15:24:02.806Z,27.30
2023-05-07T15:29:11.075Z,27.00
2023-05-07T15:34:15.918Z,27.10
2023-05-07T15:39:21.143Z,27.10
2023-05-07T15:44:28.354Z,27.10
2023-05-07T15:49:31.529Z,27.20
2023-05-07T15:54:36.131Z,27.10
2023-05-07T15:59:39.248Z,26.90
2023-05-07T16:04:42.551Z,26.80
2023-05-07T16:09:47.443Z,27.20
2023-05-07T16:14:51.871Z,27.20
2023-05-07T16:19:54.991Z,27.40
2023-05-07T16:24:59.680Z,27.30
2023-05-07T16:30:03.289Z,27.20
2023-05-07T16:35:07.211Z,27.30
2023-05-07T16:40:12.764Z,27.50
2023-05-07T16:45:16.452Z,27.30
2023-05-07T16:50:19.845Z,27.40
2023-05-07T16:55:24.406Z,27.40
2023-05-07T17:00:31.938Z,27.40
2023-05-07T17:05:38.650Z,27.60
2023-05-07T17:10:45.658Z,27.50
2023-05-07T17:15:49.084Z,27.30
2023-05-07T17:20:52.935Z,27.40
2023-05-07T17:25:57.540Z,27.40
2023-05-07T17:31:00.833Z,27.50
2023-05-07T17:36:04.186Z,27.70
2023-05-07T17:41:08.722Z,27.60
2023-05-07T17:46:11.855Z,27.70
2023-05-07T17:51:15.119Z,27.80
2023-05-07T17:56:20.248Z,27.70
2023-05-07T18:01:23.579Z,27.60
2023-05-07T18:06:26.793Z,27.80
2023-05-07T18:11:32.390Z,27.90
2023-05-07T18:16:36.154Z,27.60
2023-05-07T18:21:39.587Z,27.70
2023-05-07T18:26:44.209Z,27.80
2023-05-07T18:31:47.442Z,27.90
2023-05-07T18:36:50.652Z,28.10
2023-05-07T18:41:55.194Z,28.00
2023-05-07T18:46:58.582Z,27.90
2023-05-07T18:52:02.123Z,27.90
2023-05-07T18:57:06.727Z,27.80
2023-05-07T19:02:09.890Z,27.80
2023-05-07T19:07:13.026Z,27.70
2023-05-07T19:12:17.508Z,27.90
2023-05-07T19:17:23.068Z,28.10
2023-05-07T19:22:26.510Z,28.00
2023-05-07T19:27:31.061Z,28.00
2023-05-07T19:32:34.379Z,28.40
2023-05-07T19:37:37.895Z,28.30
2023-05-07T19:42:42.629Z,28.40
2023-05-07T19:47:45.884Z,28.60
2023-05-07T19:52:49.043Z,28.60
2023-05-07T19:57:53.650Z,28.60
2023-05-07T20:02:57.053Z,28.70
2023-05-07T20:08:00.766Z,28.70
2023-05-07T20:13:05.465Z,29.00
2023-05-07T20:18:08.782Z,29.20
2023-05-07T20:23:12.035Z,29.10
2023-05-07T20:28:16.642Z,29.20
2023-05-07T20:33:19.964Z,29.30
2023-05-07T20:38:23.342Z,29.30
2023-05-07T20:43:27.940Z,29.30
2023-05-07T20:48:32.043Z,29.50
2023-05-07T20:53:37.567Z,29.40
2023-05-07T20:58:42.169Z,29.30
2023-05-07T21:03:45.393Z,29.40
2023-05-07T21:08:48.480Z,29.40
2023-05-07T21:13:53.054Z,29.50
2023-05-07T21:18:56.212Z,29.80
2023-05-07T21:23:59.466Z,29.60
2023-05-07T21:29:04.091Z,29.80
2023-05-07T21:34:07.818Z,30.00
2023-05-07T21:39:12.149Z,29.90
2023-05-07T21:44:16.692Z,29.90
2023-05-07T21:49:19.832Z,30.10
2023-05-07T21:54:23.006Z,30.00
2023-05-07T21:59:27.515Z,30.00
2023-05-07T22:04:30.642Z,30.20
2023-05-07T22:09:33.745Z,30.10
2023-05-07T22:14:38.267Z,30.10
2023-05-07T22:19:41.422Z,30.40
2023-05-07T22:24:44.674Z,30.30
2023-05-07T22:29:49.115Z,30.40
2023-05-07T22:34:52.216Z,30.80
2023-05-07T22:39:55.361Z,30.70
2023-05-07T22:45:00.041Z,30.60
2023-05-07T22:50:05.285Z,31.10
2023-05-07T22:55:09.481Z,30.80
2023-05-07T23:00:15.492Z,30.80
2023-05-07T23:05:18.904Z,31.30
2023-05-07T23:10:22.031Z,31.10
2023-05-07T23:15:26.763Z,31.00
2023-05-07T23:20:29.933Z,31.40
2023-05-07T23:25:33.088Z,31.30
2023-05-07T23:30:37.619Z,31.30
2023-05-07T23:35:40.713Z,31.80
2023-05-07T23:40:43.919Z,31.40
2023-05-07T23:45:48.664Z,31.40
2023-05-07T23:50:51.841Z,31.80
2023-05-07T23:55:55.030Z,31.60
